Time;durP1;ratioP1;P1;durP2;ratioP2;P2;SDS_P1;SDS_P2;PMS_P1;PMS_P2;Temp;Humidity;BMP_temperature;BMP_pressure;BME280_temperature;BME280_humidity;BME280_pressure;Samples;Min_cycle;Max_cycle;Signal;HPM_P1;HPM_P2
2023/09/09 00:02:08;;;;;;;18.35;16.45;;;;;;;22.87;67.40;101490.78;5060188;28;20154;-65
2023/09/09 00:04:33;;;;;;;18.55;16.60;;;;;;;22.84;67.34;101488.56;5066959;28;20042;-65
2023/09/09 00:07:02;;;;;;;19.90;16.35;;;;;;;22.84;67.10;101484.91;5073811;28;20433;-64
2023/09/09 00:09:28;;;;;;;19.65;17.63;;;;;;;22.76;67.58;101489.34;5066309;28;20064;-64
2023/09/09 00:11:54;;;;;;;20.75;18.65;;;;;;;22.77;67.47;101485.34;5054590;28;20448;-64
2023/09/09 00:14:19;;;;;;;23.33;20.30;;;;;;;22.78;67.66;101487.84;5053626;28;20484;-64
2023/09/09 00:16:44;;;;;;;23.98;21.48;;;;;;;22.81;68.18;101488.38;5071264;28;20056;-65
2023/09/09 00:19:09;;;;;;;25.38;22.67;;;;;;;22.79;68.32;101486.72;5062340;28;20063;-64
2023/09/09 00:21:35;;;;;;;26.30;23.10;;;;;;;22.78;68.52;101485.00;5071216;28;20016;-65
2023/09/09 00:24:00;;;;;;;26.27;23.42;;;;;;;22.79;68.75;101481.06;5053459;28;20074;-64
2023/09/09 00:26:27;;;;;;;26.48;23.50;;;;;;;22.75;68.51;101482.84;5063281;28;20028;-64
2023/09/09 00:28:53;;;;;;;27.65;24.67;;;;;;;22.70;68.91;101480.13;5053543;28;20048;-65
2023/09/09 00:31:18;;;;;;;29.02;25.88;;;;;;;22.71;68.89;101481.78;5055415;28;20056;-64
2023/09/09 00:33:43;;;;;;;28.73;25.83;;;;;;;22.69;68.56;101475.63;5070837;28;20040;-64
2023/09/09 00:36:09;;;;;;;30.25;27.13;;;;;;;22.70;68.64;101476.47;5056349;28;20429;-64
2023/09/09 00:38:34;;;;;;;31.67;28.38;;;;;;;22.64;68.73;101477.75;5058814;28;20024;-64
2023/09/09 00:41:18;;;;;;;31.38;28.15;;;;;;;22.72;68.92;101477.81;5071435;28;20430;-64
2023/09/09 00:43:45;;;;;;;34.28;29.83;;;;;;;22.65;69.33;101477.44;5067971;28;20028;-64
2023/09/09 00:46:11;;;;;;;32.50;29.20;;;;;;;22.68;69.57;101467.47;5055798;28;20478;-64
2023/09/09 00:48:37;;;;;;;34.38;30.45;;;;;;;22.63;69.72;101473.22;5052874;28;20025;-64
2023/09/09 00:51:04;;;;;;;34.22;30.85;;;;;;;22.61;69.55;101472.72;5063288;28;20496;-64
2023/09/09 00:53:31;;;;;;;34.33;30.73;;;;;;;22.60;69.84;101474.72;5052096;28;20086;-64
2023/09/09 00:55:59;;;;;;;37.83;33.88;;;;;;;22.60;70.00;101471.03;5052718;28;20052;-64
2023/09/09 00:58:24;;;;;;;36.78;33.20;;;;;;;22.57;69.99;101472.53;5067450;28;20522;-64
2023/09/09 01:00:50;;;;;;;36.80;32.95;;;;;;;22.59;70.03;101477.84;5064529;28;20104;-64
2023/09/09 01:03:15;;;;;;;38.72;34.60;;;;;;;22.58;70.10;101473.38;5063017;28;20029;-64
2023/09/09 01:05:41;;;;;;;38.28;34.35;;;;;;;22.58;69.79;101471.38;5066192;28;20541;-64
2023/09/09 01:08:06;;;;;;;37.03;32.92;;;;;;;22.57;69.94;101475.38;5066565;28;20107;-63
2023/09/09 01:10:32;;;;;;;39.90;35.55;;;;;;;22.52;70.16;101476.31;5064864;28;20086;-64
2023/09/09 01:12:58;;;;;;;38.92;35.10;;;;;;;22.54;70.25;101474.00;5072625;28;20043;-64
2023/09/09 01:15:24;;;;;;;39.30;35.20;;;;;;;22.49;70.67;101478.94;5055062;28;20037;-64
2023/09/09 01:17:49;;;;;;;39.30;34.90;;;;;;;22.51;70.52;101482.28;5052728;28;20021;-64
2023/09/09 01:20:19;;;;;;;39.47;35.45;;;;;;;22.45;70.33;101475.09;5053915;28;20501;-64
2023/09/09 01:22:48;;;;;;;41.17;36.75;;;;;;;22.42;70.79;101472.88;5052180;28;20373;-64
2023/09/09 01:25:14;;;;;;;41.97;37.78;;;;;;;22.42;70.66;101472.88;5073162;28;20035;-64
2023/09/09 01:27:40;;;;;;;42.00;37.50;;;;;;;22.43;70.41;101464.06;5061373;28;20200;-64
2023/09/09 01:30:08;;;;;;;42.10;37.72;;;;;;;22.45;70.75;101467.44;5052328;28;20021;-64
2023/09/09 01:32:33;;;;;;;42.67;38.28;;;;;;;22.43;70.93;101466.91;5066710;28;20032;-64
2023/09/09 01:34:58;;;;;;;42.97;38.10;;;;;;;22.43;70.63;101464.06;5071347;28;20367;-64
2023/09/09 01:37:24;;;;;;;44.42;39.83;;;;;;;22.41;70.92;101466.41;5066243;28;20033;-64
2023/09/09 01:39:49;;;;;;;44.10;39.65;;;;;;;22.40;70.53;101469.53;5053404;28;20036;-64
2023/09/09 01:42:15;;;;;;;43.30;38.20;;;;;;;22.39;70.92;101474.34;5067164;28;20144;-64
2023/09/09 01:44:44;;;;;;;44.30;39.78;;;;;;;22.36;70.68;101476.97;5066055;28;20044;-64
2023/09/09 01:47:09;;;;;;;44.25;39.50;;;;;;;22.29;70.94;101468.94;5071806;28;20577;-64
2023/09/09 01:49:35;;;;;;;43.53;38.97;;;;;;;22.32;70.46;101468.28;5068188;28;20025;-64
2023/09/09 01:52:00;;;;;;;43.92;39.35;;;;;;;22.30;70.69;101476.28;5052136;28;20032;-64
2023/09/09 01:54:25;;;;;;;44.63;40.15;;;;;;;22.27;70.64;101466.41;5051965;28;20025;-64
2023/09/09 01:56:51;;;;;;;44.97;40.30;;;;;;;22.25;71.17;101465.91;5050606;28;20033;-64
2023/09/09 01:59:16;;;;;;;46.22;41.53;;;;;;;22.28;71.03;101470.06;5066092;28;20028;-64
2023/09/09 02:01:41;;;;;;;46.72;41.75;;;;;;;22.26;70.87;101461.09;5062613;28;20028;-64
2023/09/09 02:04:06;;;;;;;45.00;40.28;;;;;;;22.25;70.88;101462.25;5070783;28;20614;-64
2023/09/09 02:06:32;;;;;;;45.70;41.03;;;;;;;22.25;70.80;101471.56;5071680;28;20028;-64
2023/09/09 02:08:57;;;;;;;45.92;41.30;;;;;;;22.21;71.05;101466.88;5062880;28;20493;-64
2023/09/09 02:11:22;;;;;;;44.10;39.42;;;;;;;22.19;70.72;101455.84;5056022;28;20029;-64
2023/09/09 02:13:48;;;;;;;42.35;38.15;;;;;;;22.18;70.52;101457.03;5052336;28;20086;-64
2023/09/09 02:16:13;;;;;;;42.83;38.58;;;;;;;22.13;70.26;101461.94;5062164;28;20115;-64
2023/09/09 02:18:39;;;;;;;41.28;37.03;;;;;;;22.12;70.36;101452.59;5065848;28;20037;-65
2023/09/09 02:21:05;;;;;;;41.22;36.75;;;;;;;22.07;70.42;101458.34;5056260;28;20047;-64
2023/09/09 02:23:31;;;;;;;39.72;35.83;;;;;;;22.02;70.09;101458.47;5066967;28;20032;-64
2023/09/09 02:25:57;;;;;;;39.80;35.85;;;;;;;22.04;70.31;101456.16;5057677;28;20076;-64
2023/09/09 02:28:23;;;;;;;41.33;36.90;;;;;;;22.02;70.53;101464.13;5069672;28;20100;-64
2023/09/09 02:30:48;;;;;;;40.90;36.28;;;;;;;21.96;70.55;101465.38;5066819;28;20060;-64
2023/09/09 02:33:14;;;;;;;42.22;36.38;;;;;;;21.96;70.64;101459.72;5064229;28;20064;-65
2023/09/09 02:35:43;;;;;;;40.00;36.00;;;;;;;21.94;70.84;101464.88;5051039;28;20017;-64
2023/09/09 02:38:09;;;;;;;43.03;38.60;;;;;;;21.94;70.76;101464.88;5050220;28;20025;-64
2023/09/09 02:40:34;;;;;;;44.65;40.10;;;;;;;21.94;70.99;101468.53;5050874;28;20024;-65
2023/09/09 02:42:59;;;;;;;44.55;39.95;;;;;;;21.93;71.05;101464.03;5051587;28;20035;-64
2023/09/09 02:45:25;;;;;;;46.35;41.42;;;;;;;21.91;70.96;101457.84;5059249;28;20028;-64
2023/09/09 02:47:50;;;;;;;46.67;41.85;;;;;;;21.86;71.34;101465.63;5054394;28;20369;-64
2023/09/09 02:50:16;;;;;;;46.70;41.75;;;;;;;21.87;71.22;101470.09;5059781;28;20467;-64
2023/09/09 02:52:41;;;;;;;46.55;41.85;;;;;;;21.87;71.21;101462.47;5049641;28;20477;-64
2023/09/09 02:55:07;;;;;;;48.42;43.20;;;;;;;21.86;71.30;101468.44;5054523;28;20028;-65
2023/09/09 02:57:32;;;;;;;48.40;43.40;;;;;;;21.84;71.38;101470.72;5061405;28;20071;-65
2023/09/09 02:59:57;;;;;;;49.85;44.55;;;;;;;21.80;71.65;101468.53;5049812;28;20055;-65
2023/09/09 03:02:23;;;;;;;49.17;44.00;;;;;;;21.83;71.01;101466.25;5050826;28;20025;-64
2023/09/09 03:04:48;;;;;;;50.22;44.90;;;;;;;21.84;71.19;101462.25;5060126;28;20042;-65
2023/09/09 03:07:14;;;;;;;50.45;45.28;;;;;;;21.77;71.29;101463.53;5065231;28;20020;-64
2023/09/09 03:09:39;;;;;;;53.50;47.80;;;;;;;21.73;71.66;101461.63;5052053;28;20128;-65
2023/09/09 03:12:05;;;;;;;54.20;48.63;;;;;;;21.73;71.78;101464.44;5050768;28;20025;-64
2023/09/09 03:14:30;;;;;;;54.17;48.55;;;;;;;21.70;71.64;101463.09;5049779;28;20392;-64
2023/09/09 03:16:58;;;;;;;55.65;49.88;;;;;;;21.72;71.61;101462.78;5051367;28;20043;-64
2023/09/09 03:19:23;;;;;;;55.97;50.28;;;;;;;21.65;72.18;101462.34;5052474;28;20045;-64
2023/09/09 03:21:49;;;;;;;58.30;52.13;;;;;;;21.69;72.20;101461.44;5068035;28;20025;-64
2023/09/09 03:24:14;;;;;;;57.13;50.97;;;;;;;21.67;71.98;101469.38;5061041;28;20107;-64
2023/09/09 03:26:39;;;;;;;58.33;52.03;;;;;;;21.61;71.82;101464.97;5069229;28;20094;-64
2023/09/09 03:29:05;;;;;;;58.83;52.50;;;;;;;21.60;71.83;101463.28;5049785;28;20040;-64
2023/09/09 03:31:30;;;;;;;59.33;53.03;;;;;;;21.59;71.75;101460.78;5066470;28;20028;-64
2023/09/09 03:33:55;;;;;;;58.42;52.40;;;;;;;21.55;71.77;101457.75;5069717;28;20483;-65
2023/09/09 03:36:21;;;;;;;58.78;52.63;;;;;;;21.56;71.39;101463.09;5069795;28;20040;-64
2023/09/09 03:38:46;;;;;;;60.25;53.88;;;;;;;21.51;71.35;101460.38;5068732;28;20043;-63
2023/09/09 03:41:11;;;;;;;59.92;53.58;;;;;;;21.48;71.32;101465.81;5064689;28;20032;-64
2023/09/09 03:43:39;;;;;;;60.17;53.72;;;;;;;21.46;71.39;101459.63;5060553;28;20037;-64
2023/09/09 03:46:05;;;;;;;61.70;55.10;;;;;;;21.40;71.36;101461.72;5053949;28;20097;-64
2023/09/09 03:48:30;;;;;;;60.35;53.95;;;;;;;21.38;71.14;101466.84;5069199;28;20535;-65
2023/09/09 03:51:00;;;;;;;60.50;53.85;;;;;;;21.40;71.09;101463.69;5056298;28;20029;-64
2023/09/09 03:53:26;;;;;;;61.70;55.15;;;;;;;21.35;70.75;101472.28;5064115;28;20051;-65
2023/09/09 03:55:51;;;;;;;62.63;55.88;;;;;;;21.39;70.83;101467.69;5065915;28;20110;-64
2023/09/09 03:58:17;;;;;;;62.72;55.95;;;;;;;21.33;70.70;101472.56;5067761;28;20204;-64
2023/09/09 04:00:42;;;;;;;66.18;59.10;;;;;;;21.35;70.56;101475.09;5067579;28;20684;-64
2023/09/09 04:03:07;;;;;;;65.55;58.47;;;;;;;21.30;70.79;101478.81;5069670;28;20032;-64
2023/09/09 04:05:33;;;;;;;66.38;59.25;;;;;;;21.24;70.70;101472.41;5069689;28;20028;-64
2023/09/09 04:08:03;;;;;;;64.00;57.17;;;;;;;21.23;70.43;101472.75;5051251;28;20342;-64
2023/09/09 04:10:28;;;;;;;65.40;58.25;;;;;;;21.21;70.48;101478.69;5050356;28;20036;-64
2023/09/09 04:12:53;;;;;;;63.58;56.17;;;;;;;21.21;69.99;101475.03;5052171;28;20041;-64
2023/09/09 04:15:19;;;;;;;64.40;57.45;;;;;;;21.20;70.07;101476.19;5070587;28;20021;-63
2023/09/09 04:17:44;;;;;;;63.33;56.58;;;;;;;21.19;69.65;101475.34;5068404;28;20418;-64
2023/09/09 04:20:09;;;;;;;61.53;54.78;;;;;;;21.18;69.73;101473.69;5057692;28;20055;-64
2023/09/09 04:22:35;;;;;;;62.40;55.50;;;;;;;21.13;69.70;101476.56;5073460;28;20056;-64
2023/09/09 04:25:00;;;;;;;61.33;54.75;;;;;;;21.13;69.64;101473.75;5067876;28;20051;-64
2023/09/09 04:27:26;;;;;;;61.85;55.10;;;;;;;21.03;69.79;101474.78;5055685;28;20151;-64
2023/09/09 04:29:52;;;;;;;64.68;57.67;;;;;;;21.02;70.41;101469.41;5069495;28;20024;-63
2023/09/09 04:32:17;;;;;;;62.35;55.75;;;;;;;21.05;69.79;101466.81;5073172;28;20481;-64
2023/09/09 04:34:42;;;;;;;60.58;54.08;;;;;;;20.97;69.47;101477.97;5072492;28;20484;-64
2023/09/09 04:37:08;;;;;;;62.63;55.78;;;;;;;20.95;69.65;101480.28;5060688;28;20020;-64
2023/09/09 04:39:33;;;;;;;62.28;55.78;;;;;;;20.96;69.73;101470.66;5072803;28;20025;-64
2023/09/09 04:41:58;;;;;;;62.75;56.08;;;;;;;20.96;69.55;101487.59;5073535;28;20068;-64
2023/09/09 04:44:24;;;;;;;64.20;57.25;;;;;;;20.91;69.83;101482.06;5068615;28;20029;-64
2023/09/09 04:46:49;;;;;;;64.25;57.25;;;;;;;20.93;69.85;101488.22;5054014;28;20769;-64
2023/09/09 04:49:17;;;;;;;65.57;57.83;;;;;;;20.95;69.56;101478.31;5070035;28;20519;-65
2023/09/09 04:51:42;;;;;;;70.47;59.72;;;;;;;20.92;69.39;101481.72;5052789;28;20021;-64
2023/09/09 04:54:07;;;;;;;69.45;59.03;;;;;;;20.90;69.51;101486.00;5053477;28;20044;-64
2023/09/09 04:56:33;;;;;;;69.00;61.33;;;;;;;20.87;69.74;101490.28;5053891;28;20423;-64
2023/09/09 04:58:58;;;;;;;71.13;61.58;;;;;;;20.82;70.06;101488.38;5052654;28;20035;-64
2023/09/09 05:01:23;;;;;;;67.35;60.13;;;;;;;20.80;70.06;101487.84;5058737;28;20021;-64
2023/09/09 05:03:49;;;;;;;68.10;60.58;;;;;;;20.85;70.08;101489.75;5058527;28;20083;-64
2023/09/09 05:06:14;;;;;;;69.30;60.20;;;;;;;20.86;69.90;101488.59;5071445;28;20415;-66
2023/09/09 05:08:40;;;;;;;66.28;59.08;;;;;;;20.81;69.68;101497.97;5068401;28;20024;-64
2023/09/09 05:11:05;;;;;;;67.63;60.15;;;;;;;20.81;70.00;101492.34;5060148;28;20063;-65
2023/09/09 05:13:30;;;;;;;66.15;59.05;;;;;;;20.79;69.98;101482.53;5052346;28;20047;-65
2023/09/09 05:15:56;;;;;;;73.88;65.88;;;;;;;20.81;70.40;101494.31;5059069;28;20104;-64
2023/09/09 05:18:21;;;;;;;73.03;65.03;;;;;;;20.79;70.62;101500.28;5052730;28;20052;-64
2023/09/09 05:20:46;;;;;;;66.82;58.47;;;;;;;20.72;70.52;101493.34;5053673;28;20183;-64
2023/09/09 05:23:12;;;;;;;71.93;64.22;;;;;;;20.72;71.10;101497.00;5067694;28;20032;-63
2023/09/09 05:25:37;;;;;;;79.82;68.43;;;;;;;20.74;71.40;101503.16;5073041;28;20044;-66
2023/09/09 05:28:03;;;;;;;83.43;74.32;;;;;;;20.73;71.92;101501.50;5070469;28;20153;-64
2023/09/09 05:30:28;;;;;;;83.05;74.15;;;;;;;20.74;72.28;101502.34;5062671;28;20189;-64
2023/09/09 05:32:53;;;;;;;85.65;76.85;;;;;;;20.66;72.51;101501.03;5052028;28;20036;-64
2023/09/09 05:35:18;;;;;;;86.35;77.22;;;;;;;20.62;72.91;101511.25;5051337;28;20071;-64
2023/09/09 05:37:45;;;;;;;85.88;77.15;;;;;;;20.62;73.01;101507.59;5056348;28;20033;-63
2023/09/09 05:40:11;;;;;;;85.15;76.43;;;;;;;20.61;73.05;101509.59;5062093;28;20037;-65
2023/09/09 05:42:40;;;;;;;84.55;75.88;;;;;;;20.61;73.39;101511.56;5051842;28;20132;-65
2023/09/09 05:45:08;;;;;;;85.00;76.40;;;;;;;20.60;73.28;101513.56;5054851;28;20487;-65
2023/09/09 05:47:34;;;;;;;82.30;73.75;;;;;;;20.62;73.56;101510.44;5052330;28;20473;-65
2023/09/09 05:49:59;;;;;;;85.68;76.88;;;;;;;20.60;73.28;101510.75;5062597;28;20027;-65
2023/09/09 05:52:24;;;;;;;85.50;76.57;;;;;;;20.59;73.47;101514.69;5069817;28;20504;-64
2023/09/09 05:54:50;;;;;;;88.18;78.97;;;;;;;20.54;73.49;101523.22;5068864;28;20024;-64
2023/09/09 05:57:15;;;;;;;40.80;36.70;;;;;;;20.71;75.21;101519.88;5064709;28;20550;-64
2023/09/09 05:59:41;;;;;;;84.78;75.78;;;;;;;20.61;73.31;101518.06;5066443;28;20460;-65
2023/09/09 06:02:06;;;;;;;88.00;79.13;;;;;;;20.59;73.39;101529.66;5068996;28;20028;-65
2023/09/09 06:04:32;;;;;;;88.38;79.25;;;;;;;20.55;73.73;101527.72;5078982;28;20102;-63
2023/09/09 06:06:57;;;;;;;87.60;78.53;;;;;;;20.57;73.70;101525.44;5055423;28;20028;-64
2023/09/09 06:09:23;;;;;;;90.80;81.25;;;;;;;20.50;73.84;101523.00;5055698;28;20040;-64
2023/09/09 06:11:51;;;;;;;89.65;80.22;;;;;;;20.48;73.99;101525.25;5052649;28;20463;-64
2023/09/09 06:14:16;;;;;;;90.80;81.18;;;;;;;20.47;73.97;101534.00;5071698;28;20694;-64
2023/09/09 06:16:42;;;;;;;93.28;83.32;;;;;;;20.49;73.95;101526.13;5071198;28;20137;-64
2023/09/09 06:19:07;;;;;;;91.40;81.90;;;;;;;20.48;74.23;101536.53;5071401;28;20577;-65
2023/09/09 06:21:32;;;;;;;90.55;80.95;;;;;;;20.56;74.12;101535.88;5071373;28;20028;-64
2023/09/09 06:23:58;;;;;;;90.70;81.00;;;;;;;20.51;74.05;101535.94;5067571;28;20037;-64
2023/09/09 06:26:23;;;;;;;90.63;80.93;;;;;;;20.51;74.08;101541.59;5065551;28;20475;-65
2023/09/09 06:28:49;;;;;;;89.93;80.30;;;;;;;20.56;74.05;101543.53;5070343;28;20380;-64
2023/09/09 06:31:14;;;;;;;91.38;81.82;;;;;;;20.55;74.16;101541.81;5070539;28;20375;-65
2023/09/09 06:33:39;;;;;;;91.90;82.00;;;;;;;20.55;74.09;101545.50;5071213;28;20040;-65
2023/09/09 06:36:04;;;;;;;92.13;82.53;;;;;;;20.56;74.07;101546.34;5071351;28;20151;-65
2023/09/09 06:38:30;;;;;;;94.20;84.25;;;;;;;20.54;74.14;101557.06;5070504;28;20052;-65
2023/09/09 06:40:55;;;;;;;92.90;83.03;;;;;;;20.61;73.94;101549.06;5071359;28;20048;-65
2023/09/09 06:43:21;;;;;;;94.05;84.00;;;;;;;20.62;73.91;101550.75;5062874;28;20033;-64
2023/09/09 06:45:47;;;;;;;97.07;86.68;;;;;;;20.55;74.30;101550.28;5066554;28;20120;-65
2023/09/09 06:48:17;;;;;;;96.32;86.07;;;;;;;20.50;74.29;101556.00;5071045;28;20024;-65
2023/09/09 06:50:46;;;;;;;95.97;85.63;;;;;;;20.53;74.57;101563.88;5071155;28;20035;-65
2023/09/09 06:53:12;;;;;;;98.63;88.00;;;;;;;20.52;74.74;101563.03;5070294;28;20028;-65
2023/09/09 06:55:37;;;;;;;97.82;87.15;;;;;;;20.55;74.21;101567.19;5070992;28;20566;-66
2023/09/09 06:58:03;;;;;;;94.75;84.72;;;;;;;20.59;74.02;101563.50;5070733;28;20383;-65
2023/09/09 07:00:28;;;;;;;97.30;87.20;;;;;;;20.60;74.24;101569.97;5066524;28;20036;-65
2023/09/09 07:02:54;;;;;;;96.45;86.15;;;;;;;20.61;74.57;101566.00;5069787;28;20431;-65
2023/09/09 07:05:19;;;;;;;96.45;85.88;;;;;;;20.64;74.49;101558.91;5070147;28;20063;-65
2023/09/09 07:07:45;;;;;;;94.90;84.60;;;;;;;20.65;74.71;101569.88;5070623;28;20530;-65
2023/09/09 07:10:10;;;;;;;102.18;91.15;;;;;;;20.65;74.66;101567.06;5070758;28;20042;-65
2023/09/09 07:12:36;;;;;;;103.35;91.20;;;;;;;20.71;74.42;101571.50;5070031;28;20056;-65
2023/09/09 07:15:01;;;;;;;103.53;92.20;;;;;;;20.73;74.52;101572.03;5070700;28;20454;-65
2023/09/09 07:17:26;;;;;;;100.40;88.43;;;;;;;20.78;74.33;101571.94;5066833;28;20073;-65
2023/09/09 07:19:52;;;;;;;40.95;36.58;;;;;;;20.98;75.18;101581.25;5066205;28;20076;-66
2023/09/09 07:22:17;;;;;;;55.97;45.63;;;;;;;21.06;75.01;101574.91;5065682;28;20128;-66
2023/09/09 07:24:42;;;;;;;95.65;85.47;;;;;;;21.09;73.46;101577.13;5069699;28;20123;-66
2023/09/09 07:27:07;;;;;;;94.43;84.35;;;;;;;21.18;73.34;101585.72;5069852;28;20095;-66
2023/09/09 07:29:33;;;;;;;81.07;72.00;;;;;;;21.25;73.76;101584.19;5070539;28;20170;-66
2023/09/09 07:31:58;;;;;;;55.10;49.10;;;;;;;21.35;73.57;101582.41;5066993;28;20028;-66
2023/09/09 07:34:24;;;;;;;57.60;51.38;;;;;;;21.44;73.57;101580.53;5056293;28;20060;-67
2023/09/09 07:36:50;;;;;;;63.75;56.92;;;;;;;21.50;73.23;101580.16;5072411;28;20035;-65
2023/09/09 07:39:16;;;;;;;67.90;59.85;;;;;;;21.56;72.97;101584.53;5076874;28;20480;-65
2023/09/09 07:41:41;;;;;;;67.15;59.92;;;;;;;21.65;72.58;101587.50;5069805;28;20090;-65
2023/09/09 07:44:07;;;;;;;67.38;60.13;;;;;;;21.72;72.17;101585.09;5070739;28;20116;-65
2023/09/09 07:46:32;;;;;;;71.38;63.60;;;;;;;21.78;72.18;101591.53;5070734;28;20013;-65
2023/09/09 07:48:57;;;;;;;69.80;62.28;;;;;;;21.85;71.78;101589.13;5066205;28;20032;-65
2023/09/09 07:51:23;;;;;;;69.65;62.08;;;;;;;21.91;71.34;101592.69;5070583;28;20481;-65
2023/09/09 07:53:48;;;;;;;72.45;64.75;;;;;;;21.98;71.15;101593.13;5069627;28;20049;-67
2023/09/09 07:56:13;;;;;;;69.68;62.22;;;;;;;22.04;70.96;101592.69;5073022;28;20032;-66
2023/09/09 07:58:38;;;;;;;73.95;66.25;;;;;;;22.11;71.05;101592.28;5074059;28;20047;-66
2023/09/09 08:01:07;;;;;;;69.95;62.08;;;;;;;22.17;70.81;101591.06;5074610;28;20472;-66
2023/09/09 08:03:33;;;;;;;71.18;63.58;;;;;;;22.24;70.62;101593.47;5070336;28;20029;-66
2023/09/09 08:06:06;;;;;;;72.25;64.43;;;;;;;22.30;70.50;101586.56;5056642;28;20307;-67
2023/09/09 08:08:32;;;;;;;72.20;64.60;;;;;;;22.38;70.33;101596.31;5061944;28;20032;-66
2023/09/09 08:10:58;;;;;;;69.43;62.10;;;;;;;22.44;70.00;101592.19;5073151;28;20247;-66
2023/09/09 08:13:25;;;;;;;73.05;65.18;;;;;;;22.51;69.58;101595.44;5073886;28;20071;-66
2023/09/09 08:15:50;;;;;;;75.25;67.22;;;;;;;22.54;69.57;101597.66;5073629;28;20087;-66
2023/09/09 08:18:15;;;;;;;81.18;72.53;;;;;;;22.62;69.54;101596.91;5073873;28;20029;-65
2023/09/09 08:20:41;;;;;;;81.60;73.20;;;;;;;22.65;69.69;101601.09;5074082;28;20395;-66
2023/09/09 08:23:08;;;;;;;77.30;69.30;;;;;;;22.68;69.81;101606.13;5070975;28;20081;-66
2023/09/09 08:25:33;;;;;;;87.22;78.05;;;;;;;22.71;70.58;101600.66;5065866;28;20031;-66
2023/09/09 08:28:03;;;;;;;73.88;65.97;;;;;;;22.78;69.35;101609.56;5073217;28;20167;-66
2023/09/09 08:30:31;;;;;;;75.75;67.75;;;;;;;22.83;69.31;101602.09;5073427;28;20036;-66
2023/09/09 08:32:57;;;;;;;76.65;68.75;;;;;;;22.94;69.63;101610.06;5073761;28;20490;-66
2023/09/09 08:35:23;;;;;;;63.80;57.00;;;;;;;22.99;68.77;101606.28;5073957;28;20036;-66
2023/09/09 08:37:49;;;;;;;78.15;70.00;;;;;;;23.00;69.22;101608.81;5073148;28;20071;-67
2023/09/09 08:40:14;;;;;;;72.28;64.63;;;;;;;23.02;69.37;101605.66;5073532;28;20016;-66
2023/09/09 08:42:58;;;;;;;73.55;65.93;;;;;;;23.05;69.42;101616.34;5061087;28;20025;-67
2023/09/09 08:45:58;;;;;;;66.57;59.63;;;;;;;23.15;69.17;101618.94;5070063;28;20028;-66
2023/09/09 08:48:24;;;;;;;64.55;57.60;;;;;;;23.20;68.63;101621.63;5073591;28;20032;-66
2023/09/09 08:50:50;;;;;;;72.30;64.70;;;;;;;23.18;69.00;101615.44;5072968;28;20089;-66
2023/09/09 08:53:17;;;;;;;65.25;58.40;;;;;;;23.25;68.64;101615.84;5073710;28;20047;-67
2023/09/09 08:55:43;;;;;;;59.72;53.33;;;;;;;23.34;68.29;101620.75;5073548;28;20036;-66
2023/09/09 08:58:09;;;;;;;62.00;55.47;;;;;;;23.35;68.49;101620.44;5072791;28;20039;-66
2023/09/09 09:00:36;;;;;;;60.00;53.83;;;;;;;23.44;68.33;101623.34;5062540;28;20021;-66
2023/09/09 09:03:02;;;;;;;56.42;50.53;;;;;;;23.46;68.33;101616.19;5071997;28;20028;-66
2023/09/09 09:05:32;;;;;;;56.40;50.53;;;;;;;23.53;69.02;101624.22;5073222;28;20032;-66
2023/09/09 09:07:58;;;;;;;52.38;46.97;;;;;;;23.59;69.22;101620.13;5073150;28;20029;-67
2023/09/09 09:10:24;;;;;;;44.10;39.50;;;;;;;23.61;68.33;101622.63;5060941;28;20013;-66
2023/09/09 09:12:49;;;;;;;39.10;35.17;;;;;;;23.66;67.52;101619.69;5053447;28;20094;-66
2023/09/09 09:15:15;;;;;;;41.45;37.17;;;;;;;23.75;68.15;101637.59;5067780;28;20025;-66
2023/09/09 09:17:42;;;;;;;43.08;38.47;;;;;;;23.77;68.24;101633.25;5060022;28;20025;-67
2023/09/09 09:20:28;;;;;;;33.22;29.73;;;;;;;23.88;66.96;101628.16;5061515;28;20044;-66
2023/09/09 09:22:59;;;;;;;36.05;31.17;;;;;;;23.89;66.89;101637.50;5061838;28;20382;-66
2023/09/09 09:25:27;;;;;;;27.17;24.47;;;;;;;23.94;65.99;101634.53;5069636;28;20055;-66
2023/09/09 09:27:56;;;;;;;28.10;25.40;;;;;;;24.00;66.55;101633.22;5064066;28;20096;-66
2023/09/09 09:30:23;;;;;;;28.30;25.50;;;;;;;23.99;65.38;101628.72;5054584;28;20496;-66
2023/09/09 09:32:53;;;;;;;26.67;23.88;;;;;;;24.07;65.43;101625.09;5051907;28;20079;-66
2023/09/09 09:35:29;;;;;;;29.08;23.77;;;;;;;24.15;65.52;101624.28;5053246;28;20512;-66
2023/09/09 09:38:03;;;;;;;31.33;27.73;;;;;;;24.19;65.87;101616.81;5068144;28;20032;-66
2023/09/09 09:40:29;;;;;;;32.83;29.40;;;;;;;24.26;66.16;101619.19;5052464;28;20040;-66
2023/09/09 09:42:56;;;;;;;33.83;30.20;;;;;;;24.30;66.53;101619.38;5052561;28;20120;-66
2023/09/09 09:45:30;;;;;;;29.50;26.15;;;;;;;24.34;66.75;101628.88;5056237;28;20480;-66
2023/09/09 09:47:58;;;;;;;24.20;21.83;;;;;;;24.42;65.30;101631.78;5071367;28;20043;-66
2023/09/09 09:50:30;;;;;;;21.30;19.17;;;;;;;24.51;64.70;101623.28;5070260;28;20071;-66
2023/09/09 09:53:05;;;;;;;26.77;24.05;;;;;;;24.53;65.02;101620.16;5067762;28;20083;-67
2023/09/09 09:55:33;;;;;;;23.58;21.35;;;;;;;24.57;64.81;101626.84;5068355;28;20043;-66
2023/09/09 09:58:00;;;;;;;22.27;17.60;;;;;;;24.62;61.85;101623.84;5052997;28;20393;-66
2023/09/09 10:00:27;;;;;;;22.75;18.30;;;;;;;24.62;60.58;101629.50;5056829;28;20028;-66
2023/09/09 10:02:54;;;;;;;19.98;17.98;;;;;;;24.67;60.43;101620.84;5068697;28;20036;-65
2023/09/09 10:05:22;;;;;;;19.35;15.82;;;;;;;24.71;59.91;101619.00;5067287;28;20375;-66
2023/09/09 10:07:52;;;;;;;21.20;18.77;;;;;;;24.81;61.37;101615.03;5050251;28;20510;-66
2023/09/09 10:10:21;;;;;;;23.40;19.75;;;;;;;24.82;61.13;101622.38;5054932;28;20032;-65
2023/09/09 10:13:22;;;;;;;20.65;18.27;;;;;;;24.90;62.12;101624.38;5062480;28;20040;-66
2023/09/09 10:15:48;;;;;;;19.10;16.80;;;;;;;24.94;61.44;101619.72;5053590;28;20067;-65
2023/09/09 10:18:16;;;;;;;15.82;14.02;;;;;;;24.94;59.14;101620.53;5058943;28;20025;-65
2023/09/09 10:20:41;;;;;;;13.45;11.88;;;;;;;24.98;59.32;101615.88;5063238;28;20125;-66
2023/09/09 10:23:08;;;;;;;13.48;12.05;;;;;;;25.04;59.48;101621.41;5062032;28;20123;-65
2023/09/09 10:25:34;;;;;;;15.30;13.80;;;;;;;25.00;59.32;101618.41;5071505;28;20491;-65
2023/09/09 10:28:00;;;;;;;15.95;14.25;;;;;;;25.09;60.40;101615.56;5066216;28;20028;-65
2023/09/09 10:30:27;;;;;;;15.55;13.85;;;;;;;25.10;60.43;101618.09;5076515;28;20021;-66
2023/09/09 10:32:53;;;;;;;17.17;15.40;;;;;;;25.11;59.69;101614.09;5089972;28;20126;-65
2023/09/09 10:35:19;;;;;;;16.92;15.13;;;;;;;25.10;60.36;101614.41;5086054;28;20099;-66
2023/09/09 10:37:46;;;;;;;12.48;11.23;;;;;;;25.17;59.77;101623.28;5063106;28;20036;-63
2023/09/09 10:40:14;;;;;;;11.57;10.40;;;;;;;25.27;59.04;101617.28;5051843;28;20480;-70
2023/09/09 10:42:41;;;;;;;11.15;9.02;;;;;;;25.32;58.12;101613.44;5056045;28;20028;-65
2023/09/09 10:45:30;;;;;;;10.25;9.23;;;;;;;25.34;59.11;101613.91;5062103;28;20032;-64
2023/09/09 10:48:04;;;;;;;8.93;8.05;;;;;;;25.40;56.81;101613.41;5060153;28;20028;-65
2023/09/09 10:50:47;;;;;;;9.73;8.73;;;;;;;25.42;56.52;101618.75;5059972;28;20029;-64
2023/09/09 10:53:26;;;;;;;9.73;8.73;;;;;;;25.43;56.18;101612.75;5056029;28;21092;-64
2023/09/09 10:55:59;;;;;;;11.40;10.20;;;;;;;25.55;55.84;101612.06;5059431;28;20115;-64
2023/09/09 10:58:35;;;;;;;14.23;10.10;;;;;;;25.52;55.51;101615.56;5057368;28;20024;-63
2023/09/09 11:01:01;;;;;;;10.18;8.25;;;;;;;25.53;52.82;101611.56;5062616;28;20388;-64
2023/09/09 11:03:47;;;;;;;10.88;8.68;;;;;;;25.57;54.09;101608.88;5067565;28;20047;-64
2023/09/09 11:06:28;;;;;;;12.02;10.15;;;;;;;25.60;54.02;101617.56;5060752;28;20028;-64
2023/09/09 11:09:02;;;;;;;11.15;9.23;;;;;;;25.57;53.51;101618.25;5066305;28;20103;-64